createdAt,value
2022-09-17T00:04:50.571Z,11.09
2022-09-17T00:09:52.818Z,10.76
2022-09-17T00:14:54.950Z,10.67
2022-09-17T00:19:57.248Z,10.75
2022-09-17T00:24:59.384Z,10.63
2022-09-17T00:30:01.744Z,10.65
2022-09-17T00:35:06.031Z,10.55
2022-09-17T00:40:09.089Z,10.46
2022-09-17T00:45:12.362Z,10.40
2022-09-17T00:50:19.920Z,10.42
2022-09-17T00:55:27.304Z,10.26
2022-09-17T01:00:32.892Z,10.31
2022-09-17T01:06:10.457Z,10.26
2022-09-17T01:11:32.401Z,10.06
2022-09-17T01:17:10.273Z,10.01
2022-09-17T01:22:18.427Z,10.00
2022-09-17T01:27:31.922Z,9.81
2022-09-17T01:32:46.225Z,9.72
2022-09-17T01:38:09.088Z,9.59
2022-09-17T01:43:21.994Z,9.52
2022-09-17T01:48:30.864Z,9.49
2022-09-17T01:53:49.145Z,9.06
2022-09-17T01:58:56.859Z,9.48
2022-09-17T02:04:33.965Z,9.35
2022-09-17T02:09:41.933Z,9.34
2022-09-17T02:14:53.985Z,9.10
2022-09-17T02:19:56.472Z,8.92
2022-09-17T02:25:27.612Z,9.24
2022-09-17T02:30:30.253Z,8.97
2022-09-17T02:35:33.516Z,9.00
2022-09-17T02:40:49.022Z,8.94
2022-09-17T02:46:19.485Z,8.70
2022-09-17T02:51:27.840Z,8.94
2022-09-17T02:57:09.023Z,8.66
2022-09-17T03:02:21.150Z,8.76
2022-09-17T03:07:24.047Z,8.70
2022-09-17T03:12:27.070Z,8.29
2022-09-17T03:17:29.905Z,8.49
2022-09-17T03:22:32.657Z,8.32
2022-09-17T03:27:34.976Z,8.49
2022-09-17T03:32:37.159Z,8.34
2022-09-17T03:37:39.415Z,8.50
2022-09-17T03:42:41.598Z,8.25
2022-09-17T03:47:43.810Z,8.54
2022-09-17T03:52:46.054Z,8.20
2022-09-17T03:57:48.255Z,8.46
2022-09-17T04:02:50.615Z,8.36
2022-09-17T04:07:52.952Z,8.11
2022-09-17T04:12:55.098Z,8.32
2022-09-17T04:18:01.000Z,8.26
2022-09-17T04:23:03.121Z,8.29
2022-09-17T04:28:05.356Z,8.55
2022-09-17T04:33:07.595Z,8.57
2022-09-17T04:38:09.996Z,8.42
2022-09-17T04:43:12.590Z,8.26
2022-09-17T04:48:14.992Z,8.80
2022-09-17T04:53:17.341Z,8.77
2022-09-17T04:58:22.502Z,8.81
2022-09-17T05:03:24.829Z,8.65
2022-09-17T05:08:27.124Z,8.68
2022-09-17T05:13:29.351Z,8.80
2022-09-17T05:18:31.860Z,8.55
2022-09-17T05:23:34.015Z,8.95
2022-09-17T05:28:36.821Z,8.91
2022-09-17T05:33:39.000Z,8.67
2022-09-17T05:38:44.928Z,9.11
2022-09-17T05:43:47.254Z,9.09
2022-09-17T05:48:49.504Z,9.26
2022-09-17T05:53:51.689Z,8.87
2022-09-17T05:58:57.472Z,9.54
2022-09-17T06:03:59.656Z,9.39
2022-09-17T06:09:01.851Z,9.41
2022-09-17T06:14:04.303Z,9.47
2022-09-17T06:19:06.882Z,9.78
2022-09-17T06:24:10.733Z,9.84
2022-09-17T06:29:15.469Z,9.77
2022-09-17T06:34:18.244Z,9.83
2022-09-17T06:39:20.517Z,9.47
2022-09-17T06:44:22.656Z,10.14
2022-09-17T06:49:24.849Z,10.03
2022-09-17T06:54:27.090Z,10.12
2022-09-17T06:59:29.351Z,10.26
2022-09-17T07:04:31.535Z,10.41
2022-09-17T07:09:36.847Z,10.41
2022-09-17T07:14:40.385Z,10.47
2022-09-17T07:19:42.577Z,10.55
2022-09-17T07:24:45.040Z,10.71
2022-09-17T07:29:47.263Z,10.54
2022-09-17T07:34:49.726Z,10.81
2022-09-17T07:39:51.973Z,10.64
2022-09-17T07:44:57.514Z,10.77
2022-09-17T07:50:02.076Z,10.79
2022-09-17T07:55:08.573Z,10.89
2022-09-17T08:00:11.537Z,11.00
2022-09-17T08:05:13.924Z,10.48
2022-09-17T08:10:18.037Z,10.40
2022-09-17T08:15:20.376Z,11.37
2022-09-17T08:20:24.402Z,11.36
2022-09-17T08:25:26.942Z,11.60
2022-09-17T08:30:29.143Z,11.63
2022-09-17T08:35:31.247Z,12.14
2022-09-17T08:40:39.903Z,12.34
2022-09-17T08:45:42.333Z,12.31
2022-09-17T08:50:44.483Z,12.26
2022-09-17T08:55:50.488Z,12.03
2022-09-17T09:01:05.520Z,13.05
2022-09-17T09:06:10.850Z,12.58
2022-09-17T09:11:16.763Z,12.78
2022-09-17T09:16:21.546Z,12.85
2022-09-17T09:21:50.692Z,13.44
2022-09-17T09:27:05.282Z,13.55
2022-09-17T09:32:22.587Z,13.70
2022-09-17T09:37:37.283Z,13.59
2022-09-17T09:42:40.178Z,13.50
2022-09-17T09:48:07.219Z,13.75
2022-09-17T09:53:47.683Z,13.85
2022-09-17T09:58:49.901Z,13.82
2022-09-17T10:03:54.214Z,13.95
2022-09-17T10:08:58.594Z,14.06
2022-09-17T10:14:19.482Z,14.22
2022-09-17T10:19:26.033Z,13.85
2022-09-17T10:24:31.338Z,13.99
2022-09-17T10:29:34.340Z,13.79
2022-09-17T10:34:36.591Z,13.49
2022-09-17T10:39:46.832Z,13.52
2022-09-17T10:44:56.863Z,13.81
2022-09-17T10:50:17.694Z,13.94
2022-09-17T10:55:33.675Z,13.89
2022-09-17T11:00:45.257Z,13.37
2022-09-17T11:05:59.778Z,14.07
2022-09-17T11:11:13.802Z,14.25
2022-09-17T11:16:33.601Z,14.07
2022-09-17T11:21:41.903Z,14.56
2022-09-17T11:26:58.912Z,14.61
2022-09-17T11:32:30.078Z,14.76
2022-09-17T11:37:38.230Z,14.83
2022-09-17T11:42:48.105Z,14.67
2022-09-17T11:48:05.970Z,14.75
2022-09-17T11:53:23.707Z,14.94
2022-09-17T11:58:28.854Z,14.86
2022-09-17T12:03:37.926Z,14.82
2022-09-17T12:08:54.793Z,14.63
2022-09-17T12:14:18.644Z,14.65
2022-09-17T12:19:37.081Z,14.72
2022-09-17T12:24:39.407Z,14.61
2022-09-17T12:29:44.616Z,14.67
2022-09-17T12:35:08.395Z,14.64
2022-09-17T12:40:19.586Z,14.48
2022-09-17T12:45:24.972Z,14.40
2022-09-17T12:50:52.209Z,14.32
2022-09-17T12:56:00.331Z,14.49
2022-09-17T13:01:43.077Z,14.52
2022-09-17T13:07:10.834Z,14.33
2022-09-17T13:12:22.018Z,14.56
2022-09-17T13:17:41.002Z,14.59
2022-09-17T13:22:50.370Z,13.93
2022-09-17T13:28:07.918Z,13.96
2022-09-17T13:33:11.404Z,14.28
2022-09-17T13:38:13.764Z,14.03
2022-09-17T13:43:18.437Z,14.41
2022-09-17T13:48:22.484Z,13.79
2022-09-17T13:53:27.348Z,14.26
2022-09-17T13:58:31.774Z,13.75
2022-09-17T14:03:40.763Z,14.39
2022-09-17T14:08:48.289Z,14.42
2022-09-17T14:14:03.228Z,14.09
2022-09-17T14:19:23.771Z,14.48
2022-09-17T14:24:37.015Z,14.40
2022-09-17T14:29:51.337Z,14.44
2022-09-17T14:34:53.568Z,13.94
2022-09-17T14:39:56.145Z,14.21
2022-09-17T14:45:21.549Z,13.73
2022-09-17T14:50:26.054Z,13.80
2022-09-17T14:55:31.575Z,13.93
2022-09-17T15:00:38.839Z,13.82
2022-09-17T15:05:50.832Z,13.65
2022-09-17T15:11:06.175Z,13.46
2022-09-17T15:16:36.897Z,13.60
2022-09-17T15:21:41.806Z,13.08
2022-09-17T15:26:46.119Z,13.22
2022-09-17T15:31:48.417Z,12.81
2022-09-17T15:37:17.708Z,12.92
2022-09-17T15:42:20.815Z,13.13
2022-09-17T15:47:58.941Z,13.10
2022-09-17T15:53:10.341Z,13.06
2022-09-17T15:58:48.161Z,12.88
2022-09-17T16:04:01.135Z,12.84
2022-09-17T16:09:40.671Z,12.73
2022-09-17T16:14:47.667Z,10.59
2022-09-17T16:19:49.910Z,10.66
2022-09-17T16:24:53.148Z,12.14
2022-09-17T16:30:03.098Z,11.56
2022-09-17T16:35:06.412Z,12.00
2022-09-17T16:40:13.186Z,11.55
2022-09-17T16:45:16.140Z,11.40
2022-09-17T16:50:18.870Z,11.86
2022-09-17T16:55:24.704Z,11.48
2022-09-17T17:00:27.630Z,11.30
2022-09-17T17:05:30.101Z,11.02
2022-09-17T17:10:34.417Z,10.94
2022-09-17T17:15:36.571Z,11.29
2022-09-17T17:20:38.705Z,11.51
2022-09-17T17:25:41.591Z,11.05
2022-09-17T17:30:47.653Z,11.20
2022-09-17T17:35:49.873Z,11.02
2022-09-17T17:41:09.538Z,11.22
2022-09-17T17:46:12.311Z,11.09
2022-09-17T17:51:14.743Z,10.60
2022-09-17T17:56:23.421Z,11.04
2022-09-17T18:01:29.981Z,10.94
2022-09-17T18:06:32.330Z,10.93
2022-09-17T18:11:35.158Z,10.97
2022-09-17T18:16:38.862Z,10.59
2022-09-17T18:21:41.211Z,10.34
2022-09-17T18:26:43.378Z,10.35
2022-09-17T18:31:45.614Z,10.77
2022-09-17T18:36:51.201Z,10.54
2022-09-17T18:41:53.778Z,10.74
2022-09-17T18:47:00.805Z,10.54
2022-09-17T18:52:03.214Z,10.49
2022-09-17T18:57:05.758Z,9.99
2022-09-17T19:02:12.128Z,9.62
2022-09-17T19:07:14.539Z,10.33
2022-09-17T19:12:24.552Z,9.85
2022-09-17T19:17:26.770Z,10.07
2022-09-17T19:22:29.847Z,9.59
2022-09-17T19:27:34.314Z,10.14
2022-09-17T19:32:43.111Z,9.40
2022-09-17T19:37:47.833Z,9.67
2022-09-17T19:42:54.324Z,9.87
2022-09-17T19:48:01.837Z,10.04
2022-09-17T19:53:04.174Z,10.24
2022-09-17T19:58:06.633Z,9.74
2022-09-17T20:03:11.888Z,9.89
2022-09-17T20:08:14.140Z,10.04
2022-09-17T20:13:19.582Z,9.73
2022-09-17T20:18:24.421Z,9.60
2022-09-17T20:23:31.961Z,10.07
2022-09-17T20:28:36.927Z,9.80
2022-09-17T20:33:42.109Z,10.01
2022-09-17T20:44:10.052Z,8.30
2022-09-17T20:49:12.376Z,9.52
2022-09-17T20:54:14.849Z,9.91
2022-09-17T20:59:21.721Z,9.89
2022-09-17T21:04:26.066Z,10.01
2022-09-17T21:09:28.222Z,9.59
2022-09-17T21:14:30.687Z,9.67
2022-09-17T21:19:32.888Z,9.90
2022-09-17T21:24:35.016Z,9.13
2022-09-17T21:29:37.138Z,9.64
2022-09-17T21:34:39.309Z,9.86
2022-09-17T21:39:41.507Z,9.74
2022-09-17T21:44:43.930Z,9.72
2022-09-17T21:49:46.075Z,9.75
2022-09-17T21:54:48.211Z,9.46
2022-09-17T21:59:50.366Z,9.62
2022-09-17T22:04:52.521Z,9.05
2022-09-17T22:09:54.661Z,9.59
2022-09-17T22:14:56.772Z,9.31
2022-09-17T22:19:58.899Z,9.03
2022-09-17T22:25:01.006Z,9.73
2022-09-17T22:30:03.407Z,9.44
2022-09-17T22:35:08.229Z,9.37
2022-09-17T22:40:10.717Z,9.06
2022-09-17T22:45:12.892Z,9.11
2022-09-17T22:50:15.044Z,9.41
2022-09-17T22:55:17.227Z,9.07
2022-09-17T23:00:19.922Z,9.08
2022-09-17T23:05:22.052Z,9.64
2022-09-17T23:10:24.166Z,8.98
2022-09-17T23:15:27.843Z,9.40
2022-09-17T23:20:30.056Z,8.94
2022-09-17T23:25:32.827Z,9.49
2022-09-17T23:30:36.116Z,9.32
2022-09-17T23:35:38.278Z,9.15
2022-09-17T23:40:41.379Z,8.64
2022-09-17T23:45:43.514Z,9.28
2022-09-17T23:50:45.597Z,8.91
2022-09-17T23:55:48.648Z,9.07
